CYYZ/YYZ METAR and TAF weather

Enter ICAO airport designator
Station Type Date Time Source
CYYZ METAR 2021/10/22 20:00 UTC NOAA

CYYZ 222000Z 29004KT 250V020 15SM FEW025 SCT030 SCT220 09/02 A2999 RMK CU2SC1CI1 SLP160


Station Type Date Time Source
CYYZ Decoded METAR 2021/10/22 20:00 UTC NOAA

Toronto Pearson Int'L. Ont., Canada (CYYZ) 43-40N 079-38W 173M
Oct 22, 2021 - 04:00 PM EDT / 2021.10.22 2000 UTC
Wind: from the WNW (290 degrees) at 5 MPH (4 KT) (direction variable):0
Visibility: 15 mile(s):0
Sky conditions: partly cloudy
Temperature: 48 F (9 C)
Dew Point: 35 F (2 C)
Relative Humidity: 61%
Pressure (altimeter): 29.99 in. Hg (1015 hPa)
ob: CYYZ 222000Z 29004KT 250V020 15SM FEW025 SCT030 SCT220 09/02 A2999 RMK CU2SC1CI1 SLP160
cycle: 20

Station Type Date Time Source
CYYZ TAF 2021/10/22 18:51 UTC NOAA

TAF CYYZ 221747Z 2218/2324 36008KT P6SM BKN025
TEMPO 2218/2220 BKN020
FM222200 36008KT P6SM SCT025 BKN180
BECMG 2316/2318 22007KT
FM232100 20008KT P6SM BKN050
BECMG 2322/2324 28007KT
RMK NXT FCST BY 222100Z

Example: see airport list